Terminal Aerodrome Forecast
Issued by NWS

Home | Current Version | Previous Version | Graphics & Text | Print | Product List | Glossary On
Versions: 1 2 3 4 5 6 7 8 9 10 11 12 13 14 15 16 17
000
FTUS43 KBIS 252300
TAFDIK
TAF
KDIK 252335Z 2600/2624 22009KT P6SM SCT060
     FM260400 28017G25KT P6SM SCT250
     FM261200 29012KT P6SM SCT250=

USA.gov is the U.S. government's official web portal to all federal, state and local government web resources and services.